createdAt,value
2022-12-20T00:00:29.615Z,105.20
2022-12-20T00:03:34.487Z,101.27
2022-12-20T00:06:39.977Z,98.00
2022-12-20T00:09:45.062Z,102.47
2022-12-20T00:12:49.962Z,101.93
2022-12-20T00:16:07.083Z,91.03
2022-12-20T00:19:14.390Z,98.40
2022-12-20T00:22:19.292Z,99.57
2022-12-20T00:25:24.465Z,89.73
2022-12-20T00:28:29.445Z,94.80
2022-12-20T00:31:37.172Z,95.10
2022-12-20T00:34:42.154Z,87.63
2022-12-20T00:37:47.016Z,98.23
2022-12-20T00:41:01.665Z,95.37
2022-12-20T00:44:07.293Z,97.70
2022-12-20T00:47:15.035Z,88.30
2022-12-20T00:50:20.446Z,94.43
2022-12-20T00:53:26.713Z,97.23
2022-12-20T00:56:33.144Z,84.57
2022-12-20T00:59:38.258Z,96.20
2022-12-20T01:02:45.942Z,91.87
2022-12-20T01:05:55.858Z,93.50
2022-12-20T01:09:01.060Z,91.23
2022-12-20T01:12:05.962Z,81.93
2022-12-20T01:15:12.247Z,90.17
2022-12-20T01:18:19.722Z,93.13
2022-12-20T01:21:27.246Z,91.40
2022-12-20T01:24:32.325Z,92.37
2022-12-20T01:27:37.170Z,95.33
2022-12-20T01:30:43.551Z,96.05
2022-12-20T01:33:52.757Z,91.83
2022-12-20T01:36:57.622Z,86.85
2022-12-20T01:40:02.532Z,83.93
2022-12-20T01:43:07.408Z,88.17
2022-12-20T01:46:12.333Z,85.60
2022-12-20T01:49:24.018Z,78.15
2022-12-20T01:52:35.356Z,87.93
2022-12-20T01:55:40.525Z,87.10
2022-12-20T01:58:46.602Z,94.50
2022-12-20T02:01:51.843Z,99.70
2022-12-20T02:04:59.429Z,84.13
2022-12-20T02:08:04.367Z,84.40
2022-12-20T02:11:18.835Z,85.13
2022-12-20T02:14:39.230Z,91.87
2022-12-20T02:17:52.555Z,86.97
2022-12-20T02:21:19.788Z,94.40
2022-12-20T02:24:54.215Z,84.53
2022-12-20T02:28:06.921Z,86.97
2022-12-20T02:31:19.053Z,87.67
2022-12-20T02:34:27.381Z,79.50
2022-12-20T02:37:35.133Z,96.85
2022-12-20T02:40:44.595Z,85.07
2022-12-20T02:44:20.320Z,94.33
2022-12-20T02:47:32.804Z,93.07
2022-12-20T02:50:41.172Z,94.57
2022-12-20T02:53:46.351Z,94.87
2022-12-20T02:56:57.651Z,89.73
2022-12-20T03:00:08.516Z,93.63
2022-12-20T03:03:25.463Z,85.53
2022-12-20T03:06:30.923Z,95.90
2022-12-20T03:09:38.043Z,94.40
2022-12-20T03:12:42.970Z,102.63
2022-12-20T03:15:48.007Z,88.63
2022-12-20T03:18:55.456Z,88.23
2022-12-20T03:22:00.818Z,90.23
2022-12-20T03:25:05.904Z,90.35
2022-12-20T03:28:10.809Z,88.13
2022-12-20T03:31:15.742Z,86.50
2022-12-20T03:34:23.312Z,94.13
2022-12-20T03:37:28.267Z,93.53
2022-12-20T03:40:33.216Z,88.07
2022-12-20T03:43:38.060Z,98.82
2022-12-20T03:46:43.029Z,96.55
2022-12-20T03:49:52.069Z,87.25
2022-12-20T03:52:56.988Z,83.15
2022-12-20T03:56:01.918Z,83.78
2022-12-20T03:59:06.809Z,84.47
2022-12-20T04:02:11.905Z,91.18
2022-12-20T04:05:19.771Z,93.40
2022-12-20T04:08:24.716Z,95.72
2022-12-20T04:11:29.825Z,93.80
2022-12-20T04:14:35.985Z,96.83
2022-12-20T04:17:40.956Z,97.23
2022-12-20T04:20:48.771Z,93.27
2022-12-20T04:23:56.050Z,95.47
2022-12-20T04:27:00.963Z,95.00
2022-12-20T04:30:05.821Z,104.78
2022-12-20T04:33:10.794Z,95.97
2022-12-20T04:36:18.958Z,89.63
2022-12-20T04:39:23.938Z,88.20
2022-12-20T04:42:28.968Z,90.38
2022-12-20T04:45:34.015Z,79.97
2022-12-20T04:48:58.239Z,96.57
2022-12-20T04:52:19.119Z,90.43
2022-12-20T04:55:24.011Z,84.60
2022-12-20T04:58:29.281Z,90.37
2022-12-20T05:01:34.506Z,91.93
2022-12-20T05:04:40.361Z,86.47
2022-12-20T05:07:48.059Z,98.00
2022-12-20T05:10:52.979Z,78.93
2022-12-20T05:13:57.944Z,90.03
2022-12-20T05:17:02.857Z,82.97
2022-12-20T05:20:10.325Z,90.95
2022-12-20T05:23:30.437Z,99.47
2022-12-20T05:26:37.563Z,87.83
2022-12-20T05:29:42.352Z,87.27
2022-12-20T05:32:47.747Z,89.30
2022-12-20T05:35:52.940Z,97.43
2022-12-20T05:39:04.391Z,95.00
2022-12-20T05:42:09.798Z,98.00
2022-12-20T05:45:15.262Z,91.13
2022-12-20T05:48:22.196Z,92.30
2022-12-20T05:51:27.264Z,93.47
2022-12-20T05:54:34.789Z,89.07
2022-12-20T05:57:39.700Z,99.53
2022-12-20T06:00:45.188Z,99.57
2022-12-20T06:03:51.383Z,93.70
2022-12-20T06:06:56.484Z,93.17
2022-12-20T06:10:04.211Z,89.82
2022-12-20T06:13:09.487Z,84.30
2022-12-20T06:16:19.841Z,93.80
2022-12-20T06:19:24.933Z,92.65
2022-12-20T06:22:30.729Z,88.77
2022-12-20T06:25:39.801Z,100.23
2022-12-20T06:28:46.168Z,88.93
2022-12-20T06:31:51.054Z,101.40
2022-12-20T06:34:55.859Z,90.97
2022-12-20T06:38:00.743Z,92.90
2022-12-20T06:41:08.645Z,89.07
2022-12-20T06:44:13.529Z,93.00
2022-12-20T06:47:18.918Z,91.50
2022-12-20T06:50:23.862Z,92.93
2022-12-20T06:53:28.743Z,98.07
2022-12-20T06:56:41.008Z,105.43
2022-12-20T06:59:46.415Z,102.90
2022-12-20T07:02:51.741Z,100.13
2022-12-20T07:05:57.420Z,98.87
2022-12-20T07:09:02.437Z,97.03
2022-12-20T07:12:10.555Z,89.90
2022-12-20T07:15:15.478Z,92.72
2022-12-20T07:18:20.395Z,89.72
2022-12-20T07:21:26.130Z,93.60
2022-12-20T07:24:31.012Z,99.03
2022-12-20T07:27:38.696Z,104.93
2022-12-20T07:30:43.750Z,93.25
2022-12-20T07:33:48.651Z,96.82
2022-12-20T07:36:53.559Z,90.30
2022-12-20T07:39:58.650Z,90.10
2022-12-20T07:43:06.129Z,93.30
2022-12-20T07:46:11.987Z,103.57
2022-12-20T07:49:17.239Z,94.60
2022-12-20T07:52:25.704Z,94.18
2022-12-20T07:55:31.507Z,91.90
2022-12-20T07:58:42.725Z,101.28
2022-12-20T08:01:48.838Z,93.30
2022-12-20T08:04:54.006Z,99.40
2022-12-20T08:08:00.541Z,99.97
2022-12-20T08:11:06.562Z,94.63
2022-12-20T08:14:15.536Z,97.43
2022-12-20T08:17:20.396Z,96.03
2022-12-20T08:20:25.398Z,97.25
2022-12-20T08:23:30.315Z,90.75
2022-12-20T08:26:35.264Z,91.47
2022-12-20T08:29:42.737Z,82.57
2022-12-20T08:32:47.571Z,88.97
2022-12-20T08:36:00.531Z,97.57
2022-12-20T08:39:05.974Z,97.20
2022-12-20T08:42:11.480Z,98.00
2022-12-20T08:45:19.505Z,88.72
2022-12-20T08:48:25.688Z,99.60
2022-12-20T08:51:30.614Z,98.68
2022-12-20T08:54:35.580Z,86.50
2022-12-20T08:57:40.404Z,85.50
2022-12-20T09:00:47.880Z,97.27
2022-12-20T09:03:52.823Z,91.47
2022-12-20T09:06:57.706Z,97.78
2022-12-20T09:10:02.631Z,88.25
2022-12-20T09:13:07.464Z,82.15
2022-12-20T09:16:17.506Z,85.80
2022-12-20T09:19:22.431Z,84.15
2022-12-20T09:22:27.191Z,86.22
2022-12-20T09:25:32.027Z,78.65
2022-12-20T09:28:37.548Z,89.43
2022-12-20T09:31:45.228Z,79.60
2022-12-20T09:34:50.437Z,78.75
2022-12-20T09:37:55.243Z,83.95
2022-12-20T09:41:03.682Z,82.10
2022-12-20T09:44:15.412Z,76.90
2022-12-20T09:47:25.770Z,80.20
2022-12-20T09:50:46.699Z,75.88
2022-12-20T09:54:03.806Z,75.32
2022-12-20T09:57:15.987Z,72.28
2022-12-20T10:00:22.801Z,73.05
2022-12-20T10:03:34.429Z,70.13
2022-12-20T10:06:47.967Z,81.78
2022-12-20T10:10:09.690Z,73.32
2022-12-20T10:13:27.387Z,79.55
2022-12-20T10:16:45.493Z,76.57
2022-12-20T10:20:18.912Z,70.07
2022-12-20T10:23:33.593Z,76.43
2022-12-20T10:26:38.803Z,72.28
2022-12-20T10:29:44.147Z,78.07
2022-12-20T10:32:51.475Z,85.85
2022-12-20T10:35:59.053Z,70.85
2022-12-20T10:39:05.864Z,77.65
2022-12-20T10:42:28.198Z,76.63
2022-12-20T10:45:38.853Z,73.43
2022-12-20T10:48:45.740Z,78.07
2022-12-20T10:51:59.039Z,75.22
2022-12-20T10:55:03.979Z,75.63
2022-12-20T10:58:16.587Z,81.63
2022-12-20T11:01:23.832Z,89.30
2022-12-20T11:04:31.427Z,80.57
2022-12-20T11:07:43.601Z,81.45
2022-12-20T11:11:16.521Z,76.25
2022-12-20T11:14:23.275Z,84.18
2022-12-20T11:17:40.093Z,77.00
2022-12-20T11:20:50.754Z,84.78
2022-12-20T11:24:05.477Z,78.72
2022-12-20T11:27:22.627Z,78.88
2022-12-20T11:30:29.938Z,80.63
2022-12-20T11:33:46.121Z,75.70
2022-12-20T11:37:06.749Z,82.40
2022-12-20T11:40:27.281Z,82.85
2022-12-20T11:44:23.343Z,79.22
2022-12-20T11:47:34.909Z,81.43
2022-12-20T11:50:57.513Z,77.80
2022-12-20T11:54:07.426Z,78.75
2022-12-20T11:57:21.013Z,82.85
2022-12-20T12:00:27.605Z,80.90
2022-12-20T12:03:37.777Z,73.93
2022-12-20T12:06:46.994Z,74.13
2022-12-20T12:09:59.048Z,78.32
2022-12-20T12:13:16.253Z,75.63
2022-12-20T12:16:27.327Z,77.80
2022-12-20T12:19:34.604Z,67.82
2022-12-20T12:22:42.754Z,81.38
2022-12-20T12:25:47.734Z,71.13
2022-12-20T12:28:57.959Z,76.75
2022-12-20T12:32:09.997Z,83.90
2022-12-20T12:35:33.613Z,77.38
2022-12-20T12:39:06.050Z,76.97
2022-12-20T12:42:42.698Z,80.60
2022-12-20T12:45:52.815Z,80.20
2022-12-20T12:49:02.524Z,84.55
2022-12-20T12:52:08.563Z,82.60
2022-12-20T12:55:38.669Z,85.63
2022-12-20T12:58:48.804Z,78.53
2022-12-20T13:01:58.267Z,83.90
2022-12-20T13:05:05.229Z,77.50
2022-12-20T13:08:19.078Z,78.38
2022-12-20T13:11:34.035Z,77.13
2022-12-20T13:14:55.079Z,76.22
2022-12-20T13:18:03.656Z,78.43
2022-12-20T13:21:39.124Z,75.32
2022-12-20T13:24:59.597Z,74.20
2022-12-20T13:28:34.203Z,74.03
2022-12-20T13:31:39.169Z,80.05
2022-12-20T13:34:59.857Z,81.38
2022-12-20T13:38:07.529Z,75.55
2022-12-20T13:41:32.616Z,80.28
2022-12-20T13:44:45.242Z,83.55
2022-12-20T13:47:56.030Z,76.03
2022-12-20T13:51:04.285Z,75.30
2022-12-20T13:54:21.693Z,75.85
2022-12-20T13:57:33.810Z,80.47
2022-12-20T14:00:38.671Z,79.63
2022-12-20T14:03:45.127Z,77.95
2022-12-20T14:06:59.591Z,79.97
2022-12-20T14:10:07.812Z,78.43
2022-12-20T14:13:24.401Z,83.25
2022-12-20T14:16:31.684Z,80.25
2022-12-20T14:19:36.542Z,84.25
2022-12-20T14:22:48.886Z,79.43
2022-12-20T14:25:56.997Z,78.15
2022-12-20T14:29:07.845Z,91.75
2022-12-20T14:32:22.993Z,92.22
2022-12-20T14:35:28.655Z,81.88
2022-12-20T14:38:36.309Z,79.88
2022-12-20T14:41:42.912Z,89.10
2022-12-20T14:44:47.859Z,88.47
2022-12-20T14:47:58.143Z,91.45
2022-12-20T14:51:02.965Z,87.13
2022-12-20T14:54:39.489Z,79.20
2022-12-20T14:57:47.451Z,82.80
2022-12-20T15:01:00.104Z,90.10
2022-12-20T15:04:05.408Z,87.85
2022-12-20T15:07:32.261Z,94.85
2022-12-20T15:10:42.327Z,90.55
2022-12-20T15:13:50.401Z,89.30
2022-12-20T15:16:55.708Z,93.72
2022-12-20T15:20:02.113Z,90.10
2022-12-20T15:23:07.149Z,90.57
2022-12-20T15:26:18.092Z,89.75
2022-12-20T15:29:25.827Z,89.22
2022-12-20T15:32:32.267Z,94.00
2022-12-20T15:35:37.341Z,94.35
2022-12-20T15:42:10.729Z,86.10
2022-12-20T15:45:16.622Z,94.88
2022-12-20T15:48:23.223Z,98.43
2022-12-20T15:51:31.424Z,88.78
2022-12-20T15:54:38.560Z,90.57
2022-12-20T15:57:46.220Z,88.43
2022-12-20T16:00:51.138Z,94.05
2022-12-20T16:03:56.177Z,98.40
2022-12-20T16:07:01.034Z,94.45
2022-12-20T16:10:06.874Z,99.40
2022-12-20T16:13:21.097Z,99.78
2022-12-20T16:16:28.177Z,107.70
2022-12-20T16:19:33.155Z,97.00
2022-12-20T16:22:37.934Z,99.88
2022-12-20T16:25:42.792Z,100.97
2022-12-20T16:28:52.575Z,106.80
2022-12-20T16:31:57.514Z,102.25
2022-12-20T16:35:02.352Z,113.50
2022-12-20T16:38:07.794Z,108.88
2022-12-20T16:41:16.263Z,101.28
2022-12-20T16:44:23.768Z,106.82
2022-12-20T16:47:28.729Z,104.63
2022-12-20T16:50:33.721Z,100.63
2022-12-20T16:54:09.885Z,97.80
2022-12-20T16:57:03.339Z,110.45
2022-12-20T17:00:14.153Z,100.10
2022-12-20T17:03:19.179Z,94.90
2022-12-20T17:06:24.345Z,96.20
2022-12-20T17:12:48.855Z,107.97
2022-12-20T17:15:56.807Z,97.97
2022-12-20T17:19:02.269Z,101.43
2022-12-20T17:25:28.979Z,96.00
2022-12-20T17:28:33.786Z,99.72
2022-12-20T17:31:43.001Z,94.63
2022-12-20T17:34:47.999Z,97.05
2022-12-20T17:37:55.942Z,103.88
2022-12-20T17:41:00.732Z,104.63
2022-12-20T17:44:07.279Z,92.65
2022-12-20T17:47:14.755Z,93.57
2022-12-20T17:50:19.930Z,93.57
2022-12-20T17:53:24.706Z,93.15
2022-12-20T17:56:31.276Z,85.60
2022-12-20T17:59:36.127Z,94.32
2022-12-20T18:02:43.765Z,86.15
2022-12-20T18:05:49.451Z,106.00
2022-12-20T18:08:55.718Z,95.20
2022-12-20T18:12:00.591Z,91.57
2022-12-20T18:15:07.511Z,92.75
2022-12-20T18:18:14.841Z,93.05
2022-12-20T18:21:21.447Z,93.30
2022-12-20T18:24:26.231Z,96.32
2022-12-20T18:27:31.159Z,94.82
2022-12-20T18:30:36.789Z,96.75
2022-12-20T18:33:44.379Z,101.90
2022-12-20T18:36:49.611Z,92.85
2022-12-20T18:39:54.604Z,90.68
2022-12-20T18:43:05.634Z,91.82
2022-12-20T18:46:14.619Z,93.60
2022-12-20T18:49:22.181Z,103.00
2022-12-20T18:52:27.430Z,99.30
2022-12-20T18:55:32.402Z,95.80
2022-12-20T18:58:37.292Z,105.57
2022-12-20T19:01:43.844Z,104.85
2022-12-20T19:04:51.410Z,101.95
2022-12-20T19:07:56.299Z,105.80
2022-12-20T19:11:02.624Z,100.50
2022-12-20T19:14:07.765Z,101.05
2022-12-20T19:17:12.979Z,95.40
2022-12-20T19:20:23.117Z,95.63
2022-12-20T19:23:27.933Z,98.18
2022-12-20T19:26:32.784Z,96.82
2022-12-20T19:29:37.534Z,103.88
2022-12-20T19:32:42.550Z,96.82
2022-12-20T19:35:57.318Z,102.00
2022-12-20T19:39:04.044Z,97.03
2022-12-20T19:42:23.578Z,98.53
2022-12-20T19:45:29.577Z,91.10
2022-12-20T19:48:35.933Z,96.93
2022-12-20T19:51:43.905Z,93.55
2022-12-20T19:54:48.733Z,98.57
2022-12-20T19:57:53.593Z,93.07
2022-12-20T20:00:58.472Z,96.57
2022-12-20T20:04:05.405Z,94.13
2022-12-20T20:07:12.871Z,99.22
2022-12-20T20:10:17.830Z,102.45
2022-12-20T20:13:22.912Z,95.88
2022-12-20T20:16:27.802Z,95.75
2022-12-20T20:19:32.738Z,93.60
2022-12-20T20:22:40.280Z,96.40
2022-12-20T20:25:48.037Z,97.85
2022-12-20T20:28:53.478Z,88.85
2022-12-20T20:31:58.419Z,94.03
2022-12-20T20:35:03.203Z,106.55
2022-12-20T20:38:13.943Z,97.60
2022-12-20T20:41:19.028Z,88.78
2022-12-20T20:44:24.111Z,95.40
2022-12-20T20:47:29.008Z,97.50
2022-12-20T20:50:33.794Z,93.90
2022-12-20T20:53:41.721Z,99.87
2022-12-20T20:56:46.540Z,102.85
2022-12-20T20:59:51.442Z,99.63
2022-12-20T21:02:56.555Z,95.45
2022-12-20T21:09:28.973Z,98.75
2022-12-20T21:12:33.804Z,93.53
2022-12-20T21:15:39.326Z,93.95
2022-12-20T21:18:44.732Z,94.97
2022-12-20T21:21:49.534Z,101.30
2022-12-20T21:24:57.419Z,90.85
2022-12-20T21:28:02.313Z,86.10
2022-12-20T21:31:09.250Z,94.20
2022-12-20T21:34:14.097Z,99.43
2022-12-20T21:37:18.920Z,108.32
2022-12-20T21:40:26.375Z,102.53
2022-12-20T21:43:31.493Z,94.13
2022-12-20T21:46:37.075Z,91.65
2022-12-20T21:49:41.921Z,97.07
2022-12-20T21:52:46.769Z,97.80
2022-12-20T21:55:56.762Z,91.47
2022-12-20T21:59:02.621Z,93.65
2022-12-20T22:02:07.657Z,104.25
2022-12-20T22:05:12.573Z,96.50
2022-12-20T22:08:17.655Z,99.13
2022-12-20T22:11:25.326Z,92.15
2022-12-20T22:14:30.161Z,90.72
2022-12-20T22:17:34.975Z,96.53
2022-12-20T22:20:39.704Z,97.22
2022-12-20T22:23:45.573Z,91.72
2022-12-20T22:26:53.127Z,93.93
2022-12-20T22:29:58.069Z,86.13
2022-12-20T22:33:02.931Z,82.63
2022-12-20T22:36:09.384Z,92.03
2022-12-20T22:39:14.492Z,98.18
2022-12-20T22:42:22.016Z,101.35
2022-12-20T22:45:26.843Z,93.35
2022-12-20T22:48:31.905Z,95.03
2022-12-20T22:51:36.673Z,89.93
2022-12-20T22:54:41.430Z,93.47
2022-12-20T22:57:48.787Z,83.07
2022-12-20T23:00:53.588Z,87.60
2022-12-20T23:03:58.518Z,86.82
2022-12-20T23:07:03.329Z,85.05
2022-12-20T23:10:29.340Z,85.30
2022-12-20T23:13:52.181Z,81.32
2022-12-20T23:16:57.130Z,86.72
2022-12-20T23:20:14.434Z,85.60
2022-12-20T23:23:19.409Z,86.43
2022-12-20T23:26:24.807Z,86.68
2022-12-20T23:29:32.851Z,83.10
2022-12-20T23:32:37.942Z,88.70
2022-12-20T23:35:42.785Z,86.68
2022-12-20T23:38:47.558Z,93.97
2022-12-20T23:41:52.329Z,85.60
2022-12-20T23:44:59.948Z,89.13
2022-12-20T23:48:04.693Z,92.10
2022-12-20T23:51:10.240Z,86.03
2022-12-20T23:54:15.239Z,90.25
2022-12-20T23:57:20.089Z,87.90
